Time;durP1;ratioP1;P1;durP2;ratioP2;P2;SDS_P1;SDS_P2;PMS_P1;PMS_P2;Temp;Humidity;BMP_temperature;BMP_pressure;BME280_temperature;BME280_humidity;BME280_pressure;Samples;Min_cycle;Max_cycle;Signal;HPM_P1;HPM_P2
2023/03/22 00:00:36;;;;;;;7.80;7.00;;;11.50;99.90;;;;;;5028287;28;20184;-66
2023/03/22 00:03:03;;;;;;;7.13;6.73;;;11.50;99.90;;;;;;5028908;28;20183;-65
2023/03/22 00:05:29;;;;;;;7.77;7.17;;;11.50;99.90;;;;;;5027993;28;20214;-65
2023/03/22 00:07:56;;;;;;;7.77;7.17;;;11.50;99.90;;;;;;5028380;28;20179;-65
2023/03/22 00:10:24;;;;;;;8.27;7.30;;;11.60;99.90;;;;;;5027738;28;20195;-65
2023/03/22 00:12:50;;;;;;;8.47;7.63;;;11.60;99.90;;;;;;5028459;28;20676;-65
2023/03/22 00:15:17;;;;;;;7.13;6.53;;;11.60;99.90;;;;;;5028125;28;20290;-64
2023/03/22 00:17:45;;;;;;;7.30;6.70;;;11.60;99.90;;;;;;5028126;28;20214;-65
2023/03/22 00:20:11;;;;;;;8.50;6.77;;;11.60;99.90;;;;;;5027851;28;20238;-65
2023/03/22 00:22:40;;;;;;;8.33;6.47;;;11.60;99.90;;;;;;5027963;28;20668;-65
2023/03/22 00:25:06;;;;;;;8.00;7.17;;;11.60;99.90;;;;;;5027931;28;20605;-65
2023/03/22 00:27:31;;;;;;;8.60;7.37;;;11.50;99.90;;;;;;5028073;28;20213;-65
2023/03/22 00:29:57;;;;;;;7.83;6.77;;;11.50;99.90;;;;;;5027295;28;20636;-65
2023/03/22 00:32:22;;;;;;;8.73;6.87;;;11.60;99.90;;;;;;5026984;28;20183;-65
2023/03/22 00:34:48;;;;;;;7.67;6.97;;;11.50;99.90;;;;;;5028233;28;20211;-65
2023/03/22 00:37:17;;;;;;;7.40;6.80;;;11.50;99.90;;;;;;5028306;28;20207;-65
2023/03/22 00:39:43;;;;;;;7.63;6.90;;;11.50;99.90;;;;;;5027612;28;20182;-65
2023/03/22 00:42:09;;;;;;;9.70;7.37;;;11.40;99.90;;;;;;5027920;28;20188;-64
2023/03/22 00:44:34;;;;;;;7.33;6.73;;;11.40;99.90;;;;;;5027785;28;20195;-64
2023/03/22 00:47:00;;;;;;;6.93;6.23;;;11.30;99.90;;;;;;5027939;28;20663;-65
2023/03/22 00:49:26;;;;;;;9.93;6.67;;;11.20;99.90;;;;;;5027822;28;20609;-64
2023/03/22 00:51:52;;;;;;;13.30;6.97;;;11.00;99.90;;;;;;5009809;28;20237;-64
2023/03/22 00:54:18;;;;;;;8.03;7.37;;;10.80;99.90;;;;;;5028013;28;20206;-64
2023/03/22 00:56:48;;;;;;;8.20;6.90;;;10.60;99.90;;;;;;5027511;28;20241;-64
2023/03/22 00:59:15;;;;;;;7.70;6.97;;;10.40;99.90;;;;;;5028021;28;20179;-65
2023/03/22 01:01:41;;;;;;;6.53;6.03;;;10.20;99.90;;;;;;5027736;28;20657;-64
2023/03/22 01:04:07;;;;;;;7.00;6.40;;;10.10;99.90;;;;;;5027543;28;20676;-64
2023/03/22 01:06:33;;;;;;;8.03;7.33;;;9.90;99.90;;;;;;5027623;28;20207;-64
2023/03/22 01:08:59;;;;;;;8.13;7.60;;;9.80;99.90;;;;;;5028017;28;20245;-64
2023/03/22 01:11:25;;;;;;;8.43;7.53;;;9.60;99.90;;;;;;5027689;28;20187;-64
2023/03/22 01:13:51;;;;;;;8.10;7.40;;;9.50;99.90;;;;;;5027868;28;20183;-64
2023/03/22 01:16:17;;;;;;;9.43;8.80;;;9.40;99.90;;;;;;5009590;28;20226;-64
2023/03/22 01:18:43;;;;;;;9.07;8.37;;;9.30;99.90;;;;;;5029557;28;20665;-64
2023/03/22 01:21:09;;;;;;;8.33;7.73;;;9.20;99.90;;;;;;5030795;28;20359;-64
2023/03/22 01:23:35;;;;;;;9.17;8.47;;;9.10;99.90;;;;;;5031227;28;20234;-64
2023/03/22 01:26:01;;;;;;;9.27;8.53;;;9.10;99.90;;;;;;5031126;28;20231;-64
2023/03/22 01:28:27;;;;;;;9.67;8.87;;;9.10;99.90;;;;;;5031247;28;20682;-64
2023/03/22 01:30:53;;;;;;;8.27;7.70;;;9.00;99.90;;;;;;5030706;28;20207;-64
2023/03/22 01:33:19;;;;;;;8.63;8.03;;;9.00;99.90;;;;;;5030899;28;20218;-65
2023/03/22 01:35:45;;;;;;;8.33;7.60;;;9.00;99.90;;;;;;5030038;28;20203;-64
2023/03/22 01:38:10;;;;;;;7.87;7.20;;;8.90;99.90;;;;;;5030060;28;20272;-64
2023/03/22 01:40:37;;;;;;;9.23;8.53;;;8.80;99.90;;;;;;5029988;28;20182;-65
2023/03/22 01:43:02;;;;;;;10.13;9.23;;;8.80;99.90;;;;;;5030904;28;20240;-64
2023/03/22 01:45:40;;;;;;;9.27;8.33;;;8.80;99.90;;;;;;5031110;28;20215;-64
2023/03/22 01:48:12;;;;;;;10.27;9.40;;;8.80;99.90;;;;;;5030940;28;20273;-65
2023/03/22 01:50:43;;;;;;;9.53;8.63;;;8.70;99.90;;;;;;5030485;28;20188;-65
2023/03/22 01:53:12;;;;;;;9.43;8.83;;;8.80;99.90;;;;;;5031043;28;20180;-65
2023/03/22 01:55:38;;;;;;;10.47;9.47;;;8.80;99.90;;;;;;5030253;28;20227;-65
2023/03/22 01:58:04;;;;;;;10.23;9.30;;;8.80;99.90;;;;;;5030662;28;20234;-65
2023/03/22 02:00:30;;;;;;;9.30;8.50;;;8.90;99.90;;;;;;5029917;28;20179;-66
2023/03/22 02:02:56;;;;;;;9.43;8.63;;;8.90;99.90;;;;;;5023235;28;20251;-65
2023/03/22 02:05:22;;;;;;;10.60;9.63;;;8.90;99.90;;;;;;5010990;28;20608;-65
2023/03/22 02:07:48;;;;;;;9.97;9.07;;;8.90;99.90;;;;;;5011782;28;20711;-65
2023/03/22 02:10:17;;;;;;;9.87;8.97;;;8.90;99.90;;;;;;5030155;28;20179;-65
2023/03/22 02:12:51;;;;;;;10.27;9.47;;;8.90;99.90;;;;;;5030579;28;20545;-65
2023/03/22 02:15:23;;;;;;;11.03;9.93;;;9.00;99.90;;;;;;5010745;28;20217;-65
2023/03/22 02:18:27;;;;;;;9.50;8.70;;;9.00;99.90;;;;;;5010334;28;20215;-66
2023/03/22 02:21:15;;;;;;;10.00;9.07;;;9.00;99.90;;;;;;5010318;28;20282;-65
2023/03/22 02:24:02;;;;;;;11.30;10.20;;;8.90;99.90;;;;;;5016718;28;20179;-65
2023/03/22 02:26:34;;;;;;;12.27;10.10;;;9.00;99.90;;;;;;5030092;28;20192;-65
2023/03/22 02:29:25;;;;;;;11.20;10.10;;;9.00;99.90;;;;;;5029601;28;20191;-65
2023/03/22 02:31:56;;;;;;;9.93;9.10;;;9.00;99.90;;;;;;5029809;28;20649;-65
2023/03/22 02:34:39;;;;;;;10.50;9.60;;;9.00;99.90;;;;;;5011546;28;20184;-65
2023/03/22 02:37:09;;;;;;;14.20;9.77;;;9.00;99.90;;;;;;5030465;28;20238;-65
2023/03/22 02:39:53;;;;;;;10.27;9.17;;;9.00;99.90;;;;;;5029397;28;20190;-65
2023/03/22 02:42:55;;;;;;;10.23;8.57;;;9.00;99.90;;;;;;5029859;28;20225;-66
2023/03/22 02:45:32;;;;;;;10.47;9.00;;;9.00;99.90;;;;;;5029643;28;20210;-65
2023/03/22 02:48:10;;;;;;;10.73;9.63;;;9.00;99.90;;;;;;5029931;28;20179;-65
2023/03/22 02:50:52;;;;;;;10.20;9.30;;;9.00;99.90;;;;;;5029128;28;20191;-66
2023/03/22 02:53:21;;;;;;;12.57;10.07;;;9.00;99.90;;;;;;5029788;28;20186;-66
2023/03/22 02:56:11;;;;;;;10.27;9.43;;;8.90;99.90;;;;;;5029421;28;20224;-65
2023/03/22 02:58:38;;;;;;;10.93;9.93;;;8.90;99.90;;;;;;5029205;28;20211;-65
2023/03/22 03:01:07;;;;;;;9.50;8.57;;;8.90;99.90;;;;;;5009688;28;20177;-65
2023/03/22 03:03:36;;;;;;;9.80;8.80;;;8.90;99.90;;;;;;5009795;28;20179;-65
2023/03/22 03:06:12;;;;;;;11.27;9.80;;;8.90;99.90;;;;;;5029121;28;20635;-65
2023/03/22 03:08:39;;;;;;;10.47;9.17;;;8.90;99.90;;;;;;5029457;28;20545;-65
2023/03/22 03:11:06;;;;;;;10.90;9.97;;;8.80;99.90;;;;;;5029397;28;20608;-65
2023/03/22 03:13:31;;;;;;;10.73;9.77;;;8.80;99.90;;;;;;5029935;28;20189;-66
2023/03/22 03:16:00;;;;;;;9.40;8.60;;;8.80;99.90;;;;;;5029143;28;20672;-65
2023/03/22 03:18:47;;;;;;;10.47;9.53;;;8.80;99.90;;;;;;5028959;28;20238;-65
2023/03/22 03:21:33;;;;;;;10.23;9.27;;;8.80;99.90;;;;;;5028914;28;20676;-65
2023/03/22 03:24:25;;;;;;;10.70;9.57;;;8.70;99.90;;;;;;5011180;28;20187;-65
2023/03/22 03:27:13;;;;;;;8.97;8.20;;;8.70;99.90;;;;;;5005756;28;20230;-65
2023/03/22 03:30:13;;;;;;;10.00;9.00;;;8.60;99.90;;;;;;5028407;28;20253;-66
2023/03/22 03:32:51;;;;;;;9.07;8.23;;;8.70;99.90;;;;;;5028684;28;20183;-66
2023/03/22 03:35:21;;;;;;;9.33;8.70;;;8.60;99.90;;;;;;5028747;28;20219;-65
2023/03/22 03:38:10;;;;;;;9.00;8.23;;;8.70;99.90;;;;;;5028458;28;20639;-65
2023/03/22 03:41:00;;;;;;;10.00;9.00;;;8.70;99.90;;;;;;5027820;28;20183;-65
2023/03/22 03:43:26;;;;;;;9.57;8.87;;;8.60;99.90;;;;;;5029085;28;20183;-65
2023/03/22 03:45:54;;;;;;;8.63;8.03;;;8.70;99.90;;;;;;5045332;22;20671;-90
2023/03/22 03:48:24;;;;;;;8.93;8.17;;;8.60;99.90;;;;;;5053630;28;20183;-89
2023/03/22 03:50:51;;;;;;;10.07;8.53;;;8.70;99.90;;;;;;5042412;28;20236;-89
2023/03/22 03:53:17;;;;;;;14.30;7.83;;;8.70;99.90;;;;;;5055789;28;20244;-90
2023/03/22 03:55:43;;;;;;;8.50;7.70;;;8.60;99.90;;;;;;5056281;28;20175;-88
2023/03/22 04:00:41;;;;;;;8.73;7.90;;;8.70;99.90;;;;;;5047955;28;20222;-71
2023/03/22 04:03:06;;;;;;;8.40;7.70;;;8.70;99.90;;;;;;5057311;28;20188;-66
2023/03/22 04:05:32;;;;;;;8.70;7.90;;;8.70;99.90;;;;;;5051389;28;20293;-71
2023/03/22 04:07:58;;;;;;;8.27;7.57;;;8.70;99.90;;;;;;5053679;28;20189;-67
2023/03/22 04:10:24;;;;;;;8.87;8.17;;;8.70;99.90;;;;;;5049415;28;20179;-67
2023/03/22 04:12:49;;;;;;;8.23;7.40;;;8.70;99.90;;;;;;5062550;22;20329;-64
2023/03/22 04:15:15;;;;;;;9.93;8.33;;;8.70;99.90;;;;;;5027549;28;20191;-65
2023/03/22 04:17:41;;;;;;;8.77;7.97;;;8.70;99.90;;;;;;5034818;28;20768;-64
2023/03/22 04:20:09;;;;;;;8.63;8.03;;;8.70;99.90;;;;;;5028022;28;20197;-64
2023/03/22 04:22:37;;;;;;;7.90;7.30;;;8.70;99.90;;;;;;5038766;28;20574;-64
2023/03/22 04:25:04;;;;;;;9.23;8.07;;;8.70;99.90;;;;;;5048060;28;20189;-64
2023/03/22 04:27:30;;;;;;;7.90;7.20;;;8.70;99.90;;;;;;5038470;28;20297;-64
2023/03/22 04:29:56;;;;;;;9.20;8.33;;;8.70;99.90;;;;;;5027727;28;20258;-64
2023/03/22 04:32:22;;;;;;;9.27;8.00;;;8.70;99.90;;;;;;5029033;28;20614;-65
2023/03/22 04:34:49;;;;;;;10.40;8.77;;;8.70;99.90;;;;;;5035142;28;20217;-64
2023/03/22 04:37:14;;;;;;;9.10;7.97;;;8.60;99.90;;;;;;5047920;28;20233;-64
2023/03/22 04:39:40;;;;;;;8.63;7.83;;;8.60;99.90;;;;;;5041595;28;20234;-64
2023/03/22 04:42:06;;;;;;;8.80;8.00;;;8.60;99.90;;;;;;5028083;28;20735;-65
2023/03/22 04:44:31;;;;;;;8.57;7.87;;;8.60;99.90;;;;;;5031364;28;20258;-64
2023/03/22 04:46:57;;;;;;;9.33;8.40;;;8.60;99.90;;;;;;5047852;28;20178;-64
2023/03/22 04:49:23;;;;;;;13.10;7.90;;;8.60;99.90;;;;;;5046333;28;20651;-64
2023/03/22 04:51:48;;;;;;;9.00;8.03;;;8.60;99.90;;;;;;5048535;28;20205;-64
2023/03/22 04:54:14;;;;;;;10.77;8.50;;;8.50;99.90;;;;;;5038682;28;20183;-65
2023/03/22 04:56:40;;;;;;;8.43;7.63;;;8.50;99.90;;;;;;5031588;28;20599;-65
2023/03/22 04:59:05;;;;;;;9.17;8.30;;;8.50;99.90;;;;;;5043051;28;20213;-65
2023/03/22 05:01:31;;;;;;;11.47;9.03;;;8.50;99.90;;;;;;5051361;28;20687;-65
2023/03/22 05:03:57;;;;;;;8.97;8.07;;;8.50;99.90;;;;;;5041848;28;20175;-65
2023/03/22 05:06:23;;;;;;;8.93;8.07;;;8.60;99.90;;;;;;5031967;28;20178;-65
2023/03/22 05:08:48;;;;;;;8.47;7.90;;;8.60;99.90;;;;;;5039949;28;20595;-65
2023/03/22 05:11:16;;;;;;;10.23;9.40;;;8.60;99.90;;;;;;5033443;28;20201;-65
2023/03/22 05:13:42;;;;;;;9.13;8.23;;;8.60;99.90;;;;;;5044915;28;20219;-65
2023/03/22 05:16:08;;;;;;;10.17;8.63;;;8.60;99.90;;;;;;5031791;28;20656;-65
2023/03/22 05:18:36;;;;;;;8.87;8.17;;;8.60;99.90;;;;;;5045235;28;20682;-65
2023/03/22 05:21:05;;;;;;;9.33;8.43;;;8.60;99.90;;;;;;5051286;28;20207;-65
2023/03/22 05:23:31;;;;;;;12.83;8.33;;;8.70;99.90;;;;;;5037562;28;20200;-65
2023/03/22 05:25:57;;;;;;;10.27;9.03;;;8.80;99.90;;;;;;5031633;28;20186;-65
2023/03/22 05:28:23;;;;;;;9.30;8.47;;;9.00;99.90;;;;;;5042910;28;20185;-65
2023/03/22 05:30:50;;;;;;;9.93;9.03;;;9.10;99.90;;;;;;5050499;28;20721;-65
2023/03/22 05:33:20;;;;;;;10.27;7.57;;;9.10;99.90;;;;;;5040499;28;20207;-64
2023/03/22 05:35:47;;;;;;;10.23;9.33;;;9.20;99.90;;;;;;5031047;28;20229;-65
2023/03/22 05:38:12;;;;;;;9.90;9.10;;;9.30;99.90;;;;;;5040147;28;20234;-64
2023/03/22 05:40:38;;;;;;;12.13;8.67;;;9.40;99.90;;;;;;5049381;28;20535;-65
2023/03/22 05:43:04;;;;;;;8.90;8.00;;;9.40;99.90;;;;;;5043724;28;20211;-65
2023/03/22 05:45:31;;;;;;;7.90;7.30;;;9.40;99.90;;;;;;5031294;28;20202;-65
2023/03/22 05:47:56;;;;;;;9.00;8.10;;;9.50;99.90;;;;;;5046384;28;20179;-65
2023/03/22 05:50:23;;;;;;;8.43;7.83;;;9.40;99.90;;;;;;5050334;28;20289;-65
2023/03/22 05:52:50;;;;;;;8.50;7.70;;;9.40;99.90;;;;;;5036634;28;20827;-64
2023/03/22 05:55:18;;;;;;;8.10;7.40;;;9.40;99.90;;;;;;5031031;28;20540;-65
2023/03/22 05:57:45;;;;;;;8.03;7.23;;;9.50;99.90;;;;;;5043236;28;20642;-64
2023/03/22 06:00:15;;;;;;;8.07;7.37;;;9.50;99.90;;;;;;5050579;28;20206;-65
2023/03/22 06:02:42;;;;;;;14.23;7.53;;;9.60;99.90;;;;;;5041926;28;20655;-65
2023/03/22 06:05:10;;;;;;;8.27;7.43;;;9.60;99.90;;;;;;5030099;28;20223;-65
2023/03/22 06:07:36;;;;;;;7.97;7.37;;;9.70;99.90;;;;;;5030613;28;20172;-64
2023/03/22 06:10:03;;;;;;;9.27;8.23;;;9.70;99.90;;;;;;5030361;28;20237;-65
2023/03/22 06:12:29;;;;;;;8.63;7.93;;;9.80;99.90;;;;;;5030541;28;20268;-66
2023/03/22 06:14:55;;;;;;;10.40;7.60;;;9.90;99.90;;;;;;5030645;28;20179;-66
2023/03/22 06:17:21;;;;;;;9.40;7.63;;;9.90;99.90;;;;;;5047573;28;20269;-66
2023/03/22 06:19:46;;;;;;;11.50;8.50;;;10.00;99.90;;;;;;5049897;28;20179;-66
2023/03/22 06:22:12;;;;;;;13.40;8.60;;;10.00;99.90;;;;;;5034502;28;20203;-66
2023/03/22 06:24:39;;;;;;;8.33;7.67;;;10.00;99.90;;;;;;5029864;28;20541;-66
2023/03/22 06:27:05;;;;;;;9.03;8.13;;;10.10;99.90;;;;;;5043920;28;20179;-66
2023/03/22 06:29:31;;;;;;;8.17;7.37;;;10.20;99.90;;;;;;5049154;28;20182;-65
2023/03/22 06:31:57;;;;;;;8.70;7.77;;;10.20;99.90;;;;;;5040536;28;20252;-66
2023/03/22 06:34:23;;;;;;;10.70;8.00;;;10.30;99.90;;;;;;5042504;28;20258;-66
2023/03/22 06:36:48;;;;;;;7.20;6.50;;;10.40;99.90;;;;;;5030042;28;20207;-65
2023/03/22 06:39:14;;;;;;;7.60;7.00;;;10.50;99.90;;;;;;5035348;28;20182;-65
2023/03/22 06:41:40;;;;;;;7.90;7.23;;;10.60;99.90;;;;;;5048720;28;20198;-66
2023/03/22 06:44:05;;;;;;;8.67;7.87;;;10.60;99.90;;;;;;5045694;28;20175;-65
2023/03/22 06:46:31;;;;;;;7.60;7.13;;;10.70;99.90;;;;;;5029827;28;20672;-65
2023/03/22 06:48:56;;;;;;;8.10;7.40;;;10.70;99.90;;;;;;5031800;28;20171;-65
2023/03/22 06:51:22;;;;;;;7.43;6.70;;;10.80;99.90;;;;;;5049615;28;20171;-66
2023/03/22 06:53:47;;;;;;;8.33;7.63;;;10.80;99.90;;;;;;5049419;28;20217;-66
2023/03/22 06:56:13;;;;;;;8.40;7.80;;;10.90;99.90;;;;;;5029846;28;20321;-64
2023/03/22 06:58:39;;;;;;;9.40;7.30;;;10.90;99.90;;;;;;5037482;28;20202;-65
2023/03/22 07:01:05;;;;;;;9.90;9.20;;;11.00;99.90;;;;;;5046713;28;20174;-65
2023/03/22 07:03:31;;;;;;;10.27;7.10;;;11.10;99.90;;;;;;5029665;28;20586;-65
2023/03/22 07:06:04;;;;;;;7.63;6.90;;;11.10;99.90;;;;;;5029754;28;20210;-65
2023/03/22 07:08:31;;;;;;;7.93;6.60;;;11.20;99.90;;;;;;5049790;28;20682;-65
2023/03/22 07:10:56;;;;;;;7.63;7.03;;;11.30;99.90;;;;;;5031107;28;20194;-65
2023/03/22 07:13:22;;;;;;;7.70;6.97;;;11.40;99.90;;;;;;5029700;28;20586;-66
2023/03/22 07:15:48;;;;;;;8.80;7.67;;;11.50;99.90;;;;;;5029042;28;20245;-65
2023/03/22 07:18:13;;;;;;;7.33;6.40;;;11.70;99.90;;;;;;5029237;28;20211;-65
2023/03/22 07:20:40;;;;;;;7.50;6.80;;;11.90;99.90;;;;;;5044898;28;20190;-64
2023/03/22 07:23:09;;;;;;;5.93;5.33;;;12.30;99.90;;;;;;5031243;28;20248;-65
2023/03/22 07:25:35;;;;;;;5.70;5.30;;;13.00;99.90;;;;;;5038132;28;20178;-65
2023/03/22 07:28:00;;;;;;;6.33;5.80;;;13.50;99.90;;;;;;5029546;28;20657;-65
2023/03/22 07:30:26;;;;;;;6.67;5.63;;;13.80;99.90;;;;;;5029521;28;20561;-64
2023/03/22 07:32:51;;;;;;;7.37;6.77;;;14.10;99.90;;;;;;5026417;28;20209;-64
2023/03/22 07:35:17;;;;;;;4.97;4.67;;;14.50;99.90;;;;;;5034321;28;20186;-65
2023/03/22 07:37:44;;;;;;;4.37;4.17;;;14.90;99.90;;;;;;5028639;28;20703;-65
2023/03/22 07:40:10;;;;;;;5.60;4.53;;;15.20;99.90;;;;;;5030169;28;20175;-64
2023/03/22 07:42:36;;;;;;;4.93;4.47;;;15.40;99.90;;;;;;5028881;28;20285;-64
2023/03/22 07:45:02;;;;;;;5.27;4.70;;;15.40;99.90;;;;;;5044978;28;20266;-65
2023/03/22 07:47:28;;;;;;;6.03;4.80;;;15.30;99.90;;;;;;5048601;28;20238;-64
2023/03/22 07:49:53;;;;;;;4.07;3.87;;;15.10;99.90;;;;;;5046857;28;20222;-65
2023/03/22 07:52:19;;;;;;;4.33;4.03;;;14.70;99.90;;;;;;5048536;28;20312;-65
2023/03/22 07:54:44;;;;;;;4.50;4.20;;;14.50;99.90;;;;;;5034369;28;20560;-64
2023/03/22 07:57:10;;;;;;;5.83;4.27;;;14.20;99.90;;;;;;5028725;28;20227;-64
2023/03/22 07:59:36;;;;;;;4.27;3.90;;;14.10;99.90;;;;;;5040128;28;20179;-66
2023/03/22 08:02:02;;;;;;;4.50;4.30;;;14.10;99.90;;;;;;5048592;28;20194;-65
2023/03/22 08:04:29;;;;;;;5.13;4.10;;;14.30;99.90;;;;;;5037806;28;20552;-65
2023/03/22 08:06:57;;;;;;;3.90;3.70;;;14.60;99.90;;;;;;5028036;28;20174;-64
2023/03/22 08:09:26;;;;;;;3.90;3.70;;;14.90;99.90;;;;;;5036904;28;20240;-64
2023/03/22 08:11:52;;;;;;;3.80;3.60;;;15.20;99.90;;;;;;5034210;28;20211;-64
2023/03/22 08:14:17;;;;;;;4.20;3.83;;;15.30;99.90;;;;;;5028403;28;20225;-64
2023/03/22 08:16:43;;;;;;;5.40;4.07;;;15.30;99.90;;;;;;5041442;28;20270;-64
2023/03/22 08:19:09;;;;;;;3.50;3.30;;;15.60;99.90;;;;;;5048012;28;20246;-64
2023/03/22 08:21:35;;;;;;;3.80;3.60;;;15.90;99.90;;;;;;5035349;28;20578;-65
2023/03/22 08:24:02;;;;;;;6.27;3.60;;;16.20;99.90;;;;;;5028176;28;20175;-65
2023/03/22 08:26:28;;;;;;;4.23;3.90;;;16.40;99.90;;;;;;5038097;28;20580;-65
2023/03/22 08:28:55;;;;;;;3.63;3.43;;;16.50;99.90;;;;;;5047595;28;20182;-65
2023/03/22 08:31:21;;;;;;;3.63;3.33;;;16.40;99.90;;;;;;5020209;28;20271;-65
2023/03/22 08:33:48;;;;;;;7.30;3.77;;;16.30;99.90;;;;;;5027919;28;20206;-65
2023/03/22 08:36:20;;;;;;;3.57;3.47;;;16.20;99.90;;;;;;5044904;28;20186;-65
2023/03/22 08:38:46;;;;;;;4.27;4.07;;;16.10;99.90;;;;;;5047323;28;20230;-65
2023/03/22 08:41:12;;;;;;;3.83;3.43;;;16.00;99.90;;;;;;5031327;28;20558;-65
2023/03/22 08:43:37;;;;;;;4.37;4.07;;;15.70;99.90;;;;;;5025159;28;20691;-65
2023/03/22 08:46:03;;;;;;;3.70;3.60;;;15.60;99.90;;;;;;5042039;28;20174;-66
2023/03/22 08:48:29;;;;;;;3.83;3.63;;;15.60;99.90;;;;;;5047762;28;20179;-65
2023/03/22 08:50:56;;;;;;;4.00;3.80;;;15.50;99.90;;;;;;5034167;28;20183;-66
2023/03/22 08:53:21;;;;;;;4.07;3.87;;;15.50;99.90;;;;;;5027880;28;20728;-65
2023/03/22 08:55:47;;;;;;;3.87;3.57;;;15.30;99.90;;;;;;5038498;28;20187;-64
2023/03/22 08:58:15;;;;;;;3.50;3.40;;;15.10;99.90;;;;;;5047955;28;20206;-66
2023/03/22 09:00:42;;;;;;;3.73;3.53;;;14.90;99.90;;;;;;5038467;28;20183;-64
2023/03/22 09:03:08;;;;;;;4.10;3.90;;;14.70;99.90;;;;;;5045448;28;20206;-65
2023/03/22 09:05:33;;;;;;;4.07;3.87;;;14.60;99.90;;;;;;5047712;28;20182;-64
2023/03/22 09:08:00;;;;;;;3.90;3.70;;;14.70;99.90;;;;;;5048096;28;20179;-64
2023/03/22 09:10:27;;;;;;;3.83;3.63;;;15.00;99.90;;;;;;5047259;28;20232;-65
2023/03/22 09:12:52;;;;;;;4.70;3.63;;;15.10;99.90;;;;;;5046988;28;20236;-64
2023/03/22 09:15:18;;;;;;;3.87;3.67;;;15.40;99.90;;;;;;5046532;28;20700;-65
2023/03/22 09:17:44;;;;;;;3.50;3.30;;;15.50;99.90;;;;;;5047237;28;20750;-65
2023/03/22 09:20:10;;;;;;;3.50;3.30;;;15.70;99.90;;;;;;5047316;28;20171;-65
2023/03/22 09:22:36;;;;;;;4.37;4.03;;;15.70;99.90;;;;;;5046935;28;20198;-64
2023/03/22 09:25:02;;;;;;;3.73;3.57;;;16.30;99.90;;;;;;5047721;28;20174;-65
2023/03/22 09:27:28;;;;;;;3.50;3.30;;;17.10;99.90;;;;;;5048051;28;20202;-63
2023/03/22 09:29:54;;;;;;;5.63;3.00;;;17.80;99.90;;;;;;5046888;28;20209;-67
2023/03/22 09:32:20;;;;;;;3.83;3.57;;;18.40;99.90;;;;;;5047590;28;20252;-65
2023/03/22 09:34:45;;;;;;;3.60;3.40;;;18.80;99.90;;;;;;5047063;28;20175;-65
2023/03/22 09:37:11;;;;;;;3.40;3.20;;;19.00;99.90;;;;;;5047564;28;20289;-64
2023/03/22 09:39:38;;;;;;;3.33;3.10;;;19.10;99.90;;;;;;5048662;28;20576;-65
2023/03/22 09:42:14;;;;;;;3.80;3.60;;;18.80;99.90;;;;;;5051100;28;20194;-65
2023/03/22 09:44:43;;;;;;;6.23;4.43;;;18.10;99.90;;;;;;5050860;28;20257;-65
2023/03/22 09:47:16;;;;;;;4.60;4.40;;;17.60;99.90;;;;;;5051053;28;20589;-65
2023/03/22 09:49:46;;;;;;;3.27;3.10;;;17.10;99.90;;;;;;5050541;28;20705;-65
2023/03/22 09:52:14;;;;;;;3.67;3.43;;;16.80;99.90;;;;;;5050922;28;20205;-65
2023/03/22 09:54:45;;;;;;;3.70;3.60;;;16.40;99.90;;;;;;5050451;28;20194;-64
2023/03/22 09:57:31;;;;;;;3.43;3.23;;;16.30;99.90;;;;;;5050929;28;20281;-65
2023/03/22 10:00:24;;;;;;;3.70;3.40;;;16.20;99.90;;;;;;5050457;28;20182;-66
2023/03/22 10:03:17;;;;;;;4.53;4.10;;;16.10;99.90;;;;;;5050584;28;20186;-65
2023/03/22 10:05:56;;;;;;;4.10;3.90;;;16.10;99.90;;;;;;5050518;28;20263;-65
2023/03/22 10:08:39;;;;;;;5.10;4.90;;;15.80;99.90;;;;;;5050633;28;20189;-65
2023/03/22 10:11:15;;;;;;;4.30;4.00;;;15.60;99.90;;;;;;5050138;28;20266;-66
2023/03/22 10:14:00;;;;;;;5.77;5.27;;;15.60;99.90;;;;;;5054393;22;20234;-88
2023/03/22 10:16:32;;;;;;;6.90;3.90;;;15.50;99.90;;;;;;5008633;28;20179;-89
2023/03/22 10:19:20;;;;;;;4.30;4.10;;;15.50;99.90;;;;;;5040723;28;20620;-89
2023/03/22 10:21:50;;;;;;;3.87;3.57;;;15.70;99.90;;;;;;5025577;28;20183;-89
2023/03/22 10:24:25;;;;;;;3.67;3.43;;;16.00;99.90;;;;;;4999077;28;20195;-89
2023/03/22 10:26:52;;;;;;;3.40;3.20;;;16.30;99.90;;;;;;5025710;22;20226;-65
2023/03/22 10:29:34;;;;;;;4.03;3.73;;;16.70;99.90;;;;;;5030415;28;20179;-65
2023/03/22 10:32:18;;;;;;;4.13;3.60;;;17.10;99.90;;;;;;5029634;28;20199;-63
2023/03/22 10:34:46;;;;;;;3.23;3.03;;;17.40;99.90;;;;;;5029775;28;20187;-62
2023/03/22 10:37:19;;;;;;;3.40;3.20;;;17.40;99.90;;;;;;5030790;28;20203;-63
2023/03/22 10:39:49;;;;;;;4.47;4.27;;;17.30;99.90;;;;;;5012107;28;20183;-63
2023/03/22 10:42:20;;;;;;;4.60;4.30;;;17.10;99.90;;;;;;5030085;28;20613;-64
2023/03/22 10:45:00;;;;;;;3.50;3.30;;;16.90;99.90;;;;;;5029229;28;20252;-64
2023/03/22 10:47:49;;;;;;;3.70;3.50;;;16.60;99.90;;;;;;5014487;28;20182;-63
2023/03/22 10:50:21;;;;;;;3.90;3.50;;;16.30;99.90;;;;;;5028921;28;20187;-65
2023/03/22 10:52:51;;;;;;;3.80;3.50;;;16.20;99.90;;;;;;5029837;28;20684;-66
2023/03/22 10:55:16;;;;;;;3.63;3.43;;;16.20;99.90;;;;;;5029345;28;20180;-63
2023/03/22 10:57:53;;;;;;;3.40;3.30;;;16.20;99.90;;;;;;5029117;28;20211;-66
2023/03/22 11:00:20;;;;;;;4.63;3.83;;;16.20;99.90;;;;;;5029103;28;20254;-66
2023/03/22 11:02:58;;;;;;;4.67;3.80;;;16.10;99.90;;;;;;5029116;28;20245;-62
2023/03/22 11:05:27;;;;;;;3.80;3.60;;;16.00;99.90;;;;;;5029320;28;20250;-64
2023/03/22 11:07:53;;;;;;;3.80;3.50;;;16.10;99.90;;;;;;5029543;28;20184;-64
2023/03/22 11:10:33;;;;;;;3.60;3.47;;;16.10;99.90;;;;;;5029175;28;20645;-64
2023/03/22 11:13:08;;;;;;;9.33;4.17;;;16.10;99.90;;;;;;5029019;28;20512;-63
2023/03/22 11:15:49;;;;;;;3.80;3.50;;;15.90;99.90;;;;;;5028947;28;20179;-64
2023/03/22 11:18:16;;;;;;;3.97;3.73;;;15.80;99.90;;;;;;5011092;28;20203;-67
2023/03/22 11:20:54;;;;;;;4.20;3.97;;;15.80;99.90;;;;;;5028440;28;20203;-66
2023/03/22 11:23:21;;;;;;;4.87;4.57;;;15.90;99.90;;;;;;5029188;28;20230;-66
2023/03/22 11:25:48;;;;;;;4.60;4.17;;;15.90;99.90;;;;;;5029202;28;20710;-64
2023/03/22 11:28:26;;;;;;;4.17;3.87;;;15.90;99.90;;;;;;5029135;28;20183;-64
2023/03/22 11:30:59;;;;;;;3.50;3.40;;;15.70;99.90;;;;;;5028900;28;20248;-66
2023/03/22 11:33:25;;;;;;;3.60;3.40;;;15.60;99.90;;;;;;5029122;28;20281;-64
2023/03/22 11:35:57;;;;;;;3.80;3.60;;;15.50;99.90;;;;;;5028950;28;20203;-64
2023/03/22 11:38:38;;;;;;;4.27;4.07;;;15.40;99.90;;;;;;5028642;28;20219;-64
2023/03/22 11:41:08;;;;;;;3.50;3.30;;;15.30;99.90;;;;;;5010860;28;20180;-65
2023/03/22 11:43:37;;;;;;;3.67;3.47;;;15.20;99.90;;;;;;5028933;28;20195;-64
2023/03/22 11:46:04;;;;;;;4.00;3.70;;;15.10;99.90;;;;;;5011243;28;20171;-64
2023/03/22 11:48:31;;;;;;;3.53;3.40;;;15.10;99.90;;;;;;5028697;28;20683;-64
2023/03/22 11:51:37;;;;;;;4.27;3.97;;;15.20;99.90;;;;;;5028351;28;20696;-64
2023/03/22 11:54:27;;;;;;;3.87;3.57;;;15.20;99.90;;;;;;5020055;28;20599;-64
2023/03/22 11:56:57;;;;;;;4.80;4.40;;;15.30;99.90;;;;;;5027434;28;20206;-65
2023/03/22 11:59:26;;;;;;;4.97;3.57;;;15.50;99.90;;;;;;5027953;28;20187;-65
2023/03/22 12:02:14;;;;;;;3.63;3.30;;;15.70;99.90;;;;;;5027921;28;20291;-64
2023/03/22 12:04:43;;;;;;;3.50;3.30;;;15.90;99.90;;;;;;5028629;28;20266;-63
2023/03/22 12:07:20;;;;;;;3.90;3.70;;;16.00;99.90;;;;;;5029002;28;20183;-64
2023/03/22 12:10:00;;;;;;;3.73;3.53;;;16.00;99.90;;;;;;5008631;28;20554;-64
2023/03/22 12:12:30;;;;;;;4.10;3.70;;;16.10;99.90;;;;;;5009552;28;20732;-64
2023/03/22 12:15:01;;;;;;;3.80;3.60;;;16.00;99.90;;;;;;5028304;28;20181;-65
2023/03/22 12:17:35;;;;;;;3.70;3.50;;;15.90;99.90;;;;;;5028511;28;20556;-65
2023/03/22 12:20:39;;;;;;;4.77;3.63;;;15.70;99.90;;;;;;5006939;28;20181;-63
2023/03/22 12:23:15;;;;;;;4.07;3.47;;;15.70;99.90;;;;;;5013573;28;20202;-64
2023/03/22 12:25:49;;;;;;;3.60;3.50;;;15.60;99.90;;;;;;5028249;28;20222;-65
2023/03/22 12:28:19;;;;;;;4.07;3.87;;;15.50;99.90;;;;;;5027992;28;20194;-65
2023/03/22 12:30:48;;;;;;;4.10;3.70;;;15.40;99.90;;;;;;5027541;28;20171;-64
2023/03/22 12:33:41;;;;;;;3.83;3.57;;;15.30;99.90;;;;;;5028079;28;20195;-65
2023/03/22 12:36:13;;;;;;;4.03;3.70;;;15.30;99.90;;;;;;5008884;28;20184;-64
2023/03/22 12:38:53;;;;;;;4.60;4.30;;;15.30;99.90;;;;;;5011716;28;20676;-65
2023/03/22 12:41:59;;;;;;;4.77;4.40;;;15.20;99.90;;;;;;5028215;28;20206;-65
2023/03/22 12:44:53;;;;;;;4.63;3.73;;;15.10;99.90;;;;;;5007015;28;20227;-66
2023/03/22 12:47:33;;;;;;;3.70;3.50;;;15.10;99.90;;;;;;5025218;28;20202;-65
2023/03/22 12:50:09;;;;;;;4.67;4.37;;;15.00;99.90;;;;;;5027904;28;20556;-65
2023/03/22 12:52:41;;;;;;;4.80;4.60;;;15.00;99.90;;;;;;5028267;28;20199;-65
2023/03/22 12:55:09;;;;;;;4.43;4.03;;;14.90;99.90;;;;;;5028162;28;20552;-64
2023/03/22 12:57:37;;;;;;;4.10;3.90;;;14.80;99.90;;;;;;5027981;28;20248;-64
2023/03/22 13:00:12;;;;;;;3.80;3.60;;;14.70;99.90;;;;;;5027524;28;20195;-64
2023/03/22 13:02:39;;;;;;;3.83;3.63;;;14.50;99.90;;;;;;5009989;28;20692;-64
2023/03/22 13:05:08;;;;;;;4.57;4.20;;;14.30;99.90;;;;;;5027874;28;20248;-64